Aérodrome :
LOGIN :

S'inscrire | Disclaimer

   EN    FR    IT 

 










Légende :    VFR   VFR Marginal   IFR   IFR Intensif   IFR Très Intensif
Visi : 
Plafond : 
>= 8 km
>= 3000ft
5 à 8 km
1000 à 3000 ft
1500m à 5 km
500 à 1000 ft
800 à 1500m
200 à 500 ft
< 800m
< 200 ft
Symboles :   Orages  Brouillard  Fortes neiges  Fortes précipitations  Vent > 20 kt
SIGMETs :   Divers  Orages  Givrage  Turbulence  Onde Orograph.  Cendres Volcan.






- Altitude de l'aérodrome : 219 ft
- Code IATA : DNR


LFRD - Dinard

DERNIER METAR :
  • 111930Z AUTO 22009KT 9999 ///CB 06/05 Q1009 TEMPO 25017G30KT 3000 SHRAGS

METARs EXPIRÉS :
  • 111900Z AUTO 24010KT 9999 FEW025/// BKN033/// BKN052/// ///CB 07/06 Q1009 TEMPO 25017G30KT 3000 SHRAGS
  • 111830Z AUTO 23008KT 9999 FEW017/// SCT025/// BKN030/// ///TCU 07/05 Q1010 TEMPO 25017G30KT 3000 SHRAGS BKN020CB
  • 111800Z AUTO 27006KT 5000 RA BR BKN025/// OVC034/// ///TCU 07/05 Q1010 TEMPO 25017G30KT SHRAGS BKN020CB
  • 111730Z AUTO 26012KT 9999 3200 +RA FEW027/// BKN036/// BKN043/// ///TCU 07/05 Q1010 TEMPO 25017G30KT 3000 SHRAGS BKN020CB
  • 111700Z AUTO 24009KT 9999 FEW033/// BKN140/// ///TCU 07/05 Q1010 TEMPO 30025G40KT 3000 SHRAGS BKN020CB

TAF TAF LFRD
Valide du 11 à 18h jusqu'au 12 à 18h UTC


111700Z 1118/1218 25012KT 9999 BKN030
TEMPO 1118/1211 25017G30KT 4000 SHRA BKN020TCU
PROB40
TEMPO 1118/1122 3000 SHRAGS BKN020CB
BECMG 1209/1211 29017G30KT
TEMPO 1211/1216 29025G40KT 4000 SHRA BKN020CB
PROB30
TEMPO 1216/1218 5000 SHRA
ATIS : +33 2 99 16 81 50



MET'MAP, la Météo Aéronautique d'un coup d'oeil ! - Copyright ORBIFLY Décembre 2007 - Disclaimer

ORBIFLY MET'MAP TEAM :

Programmation & Développement : Alexandra Zaïnal
Conception & Développement : Baudouin d'Aumeries
Co-Programmation & Développement : Marc-Olivier Méhu
Soutien technique & logistique : Manuel Goepfert

Contact : metmap@orbifly.com




SOURCES & CREDITS :

   NOAA